createdAt,value
2018-10-05T18:47:59.115Z,11.66
2018-10-05T18:48:59.206Z,11.69
2018-10-05T18:49:59.089Z,11.70
2018-10-05T18:50:59.081Z,11.62
2018-10-05T18:51:59.046Z,11.59
2018-10-05T18:52:59.034Z,11.65
2018-10-05T18:53:59.067Z,11.63
2018-10-05T18:54:59.019Z,11.57
2018-10-05T18:55:59.032Z,11.57
2018-10-05T18:56:58.993Z,11.54
2018-10-05T18:57:59.064Z,11.51
2018-10-05T18:58:59.054Z,11.48
2018-10-05T18:59:59.021Z,11.55
2018-10-05T19:00:58.953Z,11.45
2018-10-05T19:01:58.939Z,11.41
2018-10-05T19:02:58.930Z,11.41
2018-10-05T19:03:58.919Z,11.44
2018-10-05T19:04:58.939Z,11.37
2018-10-05T19:05:59.045Z,11.52
2018-10-05T19:06:58.942Z,11.47
2018-10-05T19:07:58.908Z,11.51
2018-10-05T19:08:58.927Z,11.59
2018-10-05T19:09:58.902Z,11.60
2018-10-05T19:10:58.931Z,11.47
2018-10-05T19:11:58.865Z,11.52
2018-10-05T19:12:58.841Z,11.48
2018-10-05T19:13:58.857Z,11.54
2018-10-05T19:14:58.862Z,11.48
2018-10-05T19:15:58.796Z,11.51
2018-10-05T19:16:58.788Z,11.43
2018-10-05T19:17:58.785Z,11.41
2018-10-05T19:18:58.842Z,11.41
2018-10-05T19:19:58.807Z,11.40
2018-10-05T19:20:58.782Z,11.45
2018-10-05T19:21:58.746Z,11.44
2018-10-05T19:22:58.763Z,11.51
2018-10-05T19:23:58.745Z,11.59
2018-10-05T19:24:58.729Z,11.68
2018-10-05T19:25:58.821Z,11.78
2018-10-05T19:26:58.700Z,11.88
2018-10-05T19:27:58.700Z,11.95
2018-10-05T19:28:58.660Z,12.18
2018-10-05T19:29:58.653Z,12.31
2018-10-05T19:30:58.737Z,12.57
2018-10-05T19:31:58.630Z,12.73
2018-10-05T19:32:58.627Z,12.76
2018-10-05T19:33:58.680Z,12.85
2018-10-05T19:34:58.598Z,12.90
2018-10-05T19:35:58.601Z,12.90
2018-10-05T19:36:58.686Z,12.95
2018-10-05T19:37:58.581Z,12.94
2018-10-05T19:38:58.553Z,12.95
2018-10-05T19:39:58.767Z,12.87
2018-10-05T19:40:58.561Z,12.86
2018-10-05T19:41:58.993Z,12.85
2018-10-05T19:42:58.512Z,12.78
2018-10-05T19:43:58.616Z,12.78
2018-10-05T19:44:59.391Z,12.78
2018-10-05T19:45:58.484Z,12.82
2018-10-05T19:46:58.503Z,12.64
2018-10-05T19:47:58.458Z,12.76
2018-10-05T19:48:58.450Z,12.72
2018-10-05T19:49:58.442Z,12.82
2018-10-05T19:50:58.462Z,12.80
2018-10-05T19:51:58.419Z,12.85
2018-10-05T19:52:58.508Z,12.90
2018-10-05T19:53:58.495Z,12.97
2018-10-05T19:54:58.482Z,13.11
2018-10-05T19:55:58.380Z,13.19
2018-10-05T19:56:58.370Z,13.23
2018-10-05T19:57:58.384Z,13.28
2018-10-05T19:58:58.350Z,13.37
2018-10-05T19:59:58.348Z,13.47
2018-10-05T20:00:58.336Z,13.49
2018-10-05T20:01:58.385Z,13.56
2018-10-05T20:02:58.332Z,13.59
2018-10-05T20:03:58.297Z,13.56
2018-10-05T20:04:58.318Z,13.60
2018-10-05T20:05:58.274Z,13.74
2018-10-05T20:06:58.257Z,13.83
2018-10-05T20:07:58.270Z,13.96
2018-10-05T20:08:58.265Z,13.93
2018-10-05T20:09:58.239Z,14.00
2018-10-05T20:10:58.220Z,13.97
2018-10-05T20:11:58.202Z,14.07
2018-10-05T20:12:58.194Z,14.05
2018-10-05T20:13:58.240Z,14.10
2018-10-05T20:14:58.186Z,13.97
2018-10-05T20:15:58.179Z,14.04
2018-10-05T20:16:58.181Z,14.08
2018-10-05T20:17:58.312Z,14.07
2018-10-05T20:18:58.215Z,14.05
2018-10-05T20:19:58.118Z,14.00
2018-10-05T20:20:58.107Z,13.93
2018-10-05T20:21:58.138Z,13.85
2018-10-05T20:22:58.087Z,13.72
2018-10-05T20:23:58.086Z,13.72
2018-10-05T20:24:58.168Z,13.65
2018-10-05T20:25:58.062Z,13.72
2018-10-05T20:26:58.054Z,13.65
2018-10-05T20:27:58.040Z,13.54
2018-10-05T20:28:58.055Z,13.56
2018-10-05T20:29:58.080Z,13.52
2018-10-05T20:30:58.046Z,13.49
2018-10-05T20:31:57.991Z,13.41
2018-10-05T20:32:57.996Z,13.25
2018-10-05T20:33:58.008Z,13.23
2018-10-05T20:34:57.992Z,13.22
2018-10-05T20:35:58.094Z,13.18
2018-10-05T20:36:58.129Z,13.00
2018-10-05T20:37:57.933Z,13.01
2018-10-05T20:38:57.985Z,12.98
2018-10-05T20:39:57.934Z,12.97
2018-10-05T20:40:57.899Z,12.86
2018-10-05T20:41:57.926Z,12.85
2018-10-05T20:42:57.880Z,12.80
2018-10-05T20:43:57.882Z,12.72
2018-10-05T20:44:57.877Z,12.76
2018-10-05T20:45:57.917Z,12.64
2018-10-05T20:46:57.936Z,12.45
2018-10-05T20:47:57.827Z,12.42
2018-10-05T20:48:57.812Z,12.29
2018-10-05T20:49:57.884Z,12.22
2018-10-05T20:50:57.829Z,12.10
2018-10-05T20:51:57.829Z,12.07
2018-10-05T20:52:57.765Z,12.04
2018-10-05T20:53:57.777Z,12.04
2018-10-05T20:54:57.756Z,11.87
2018-10-05T20:55:57.811Z,11.91
2018-10-05T20:56:57.876Z,11.94
2018-10-05T20:57:57.715Z,11.97
2018-10-05T20:58:57.739Z,12.06
2018-10-05T20:59:57.687Z,12.04
2018-10-05T21:00:57.691Z,12.12
2018-10-05T21:01:57.707Z,12.09
2018-10-05T21:02:57.746Z,12.20
2018-10-05T21:03:57.662Z,12.21
2018-10-05T21:04:57.639Z,12.28
2018-10-05T21:05:57.707Z,12.27
2018-10-05T21:06:57.721Z,12.35
2018-10-05T21:07:57.605Z,12.24
2018-10-05T21:08:57.608Z,12.37
2018-10-05T21:09:57.592Z,12.32
2018-10-05T21:10:57.671Z,12.20
2018-10-05T21:11:57.602Z,12.18
2018-10-05T21:12:57.553Z,12.15
2018-10-05T21:13:57.546Z,12.15
2018-10-05T21:14:57.607Z,12.18
2018-10-05T21:15:57.535Z,12.22
2018-10-05T21:16:57.515Z,12.24
2018-10-05T21:17:57.546Z,12.20
2018-10-05T21:18:57.510Z,12.18
2018-10-05T21:19:57.479Z,12.20
2018-10-05T21:20:57.483Z,12.13
2018-10-05T21:21:57.462Z,12.10
2018-10-05T21:22:57.489Z,12.13
2018-10-05T21:23:57.480Z,12.12
2018-10-05T21:24:58.406Z,12.02
2018-10-05T21:25:57.417Z,11.97
2018-10-05T21:26:57.426Z,12.03
2018-10-05T21:27:57.538Z,12.03
2018-10-05T21:28:57.418Z,11.87
2018-10-05T21:29:57.369Z,11.86
2018-10-05T21:30:57.377Z,11.88
2018-10-05T21:31:57.371Z,11.70
2018-10-05T21:32:57.478Z,11.66
2018-10-05T21:33:57.405Z,11.60
2018-10-05T21:34:57.343Z,11.51
2018-10-05T21:35:57.304Z,11.54
2018-10-05T21:36:57.299Z,11.51
2018-10-05T21:37:57.333Z,11.51
2018-10-05T21:38:57.308Z,11.57
2018-10-05T21:39:57.264Z,11.63
2018-10-05T21:40:57.282Z,11.57
2018-10-05T21:41:57.260Z,11.57
2018-10-05T21:42:57.252Z,11.66
2018-10-05T21:43:57.273Z,11.57
2018-10-05T21:44:57.302Z,11.54
2018-10-05T21:45:57.218Z,11.52
2018-10-05T21:46:57.208Z,11.44
2018-10-05T21:47:57.179Z,11.54
2018-10-05T21:48:57.171Z,11.41
2018-10-05T21:49:57.190Z,11.45
2018-10-05T21:50:57.179Z,11.41
2018-10-05T21:51:57.144Z,11.44
2018-10-05T21:52:57.126Z,11.40
2018-10-05T21:53:57.145Z,11.47
2018-10-05T21:54:57.135Z,11.37
2018-10-05T21:55:57.096Z,11.44
2018-10-05T21:56:57.102Z,11.36
2018-10-05T21:57:57.086Z,11.44
2018-10-05T21:58:57.073Z,11.37
2018-10-05T21:59:57.138Z,11.36
2018-10-05T22:00:57.130Z,11.47
2018-10-05T22:01:57.041Z,11.41
2018-10-05T22:02:57.032Z,11.41
2018-10-05T22:03:57.056Z,11.35
2018-10-05T22:04:57.007Z,11.33
2018-10-05T22:05:57.027Z,11.36
2018-10-05T22:06:57.015Z,11.41
2018-10-05T22:07:56.978Z,11.36
2018-10-05T22:08:56.964Z,11.25
2018-10-05T22:09:57.012Z,11.19
2018-10-05T22:10:56.989Z,11.23
2018-10-05T22:11:56.933Z,11.19
2018-10-05T22:12:56.936Z,11.19
2018-10-05T22:13:56.967Z,11.14
2018-10-05T22:14:56.910Z,11.17
2018-10-05T22:15:56.953Z,11.05
2018-10-05T22:16:56.880Z,11.07
2018-10-05T22:17:56.908Z,11.05
2018-10-05T22:18:56.861Z,11.08
2018-10-05T22:19:56.923Z,11.10
2018-10-05T22:20:56.841Z,11.12
2018-10-05T22:21:56.892Z,11.22
2018-10-05T22:22:56.817Z,11.17
2018-10-05T22:23:56.810Z,11.26
2018-10-05T22:24:56.790Z,11.27
2018-10-05T22:25:56.787Z,11.29
2018-10-05T22:26:56.821Z,11.29
2018-10-05T22:27:56.781Z,11.30
2018-10-05T22:28:56.767Z,11.27
2018-10-05T22:29:56.758Z,11.30
2018-10-05T22:30:56.741Z,11.32
2018-10-05T22:31:56.750Z,11.29
2018-10-05T22:32:56.719Z,11.33
2018-10-05T22:33:56.697Z,11.18
2018-10-05T22:34:56.727Z,11.26
2018-10-05T22:35:56.691Z,11.32
2018-10-05T22:36:56.723Z,11.26
2018-10-05T22:37:56.688Z,11.33
2018-10-05T22:38:56.691Z,11.32
2018-10-05T22:39:56.674Z,11.29
2018-10-05T22:40:56.637Z,11.32
2018-10-05T22:41:56.647Z,11.36
2018-10-05T22:42:56.658Z,11.43
2018-10-05T22:43:56.599Z,11.41
2018-10-05T22:44:56.585Z,11.44
2018-10-05T22:45:56.600Z,11.37
2018-10-05T22:46:56.562Z,11.43
2018-10-05T22:47:56.581Z,11.36
2018-10-05T22:48:56.548Z,11.29
2018-10-05T22:49:56.550Z,11.23
2018-10-05T22:50:56.547Z,11.19
2018-10-05T22:51:56.511Z,11.11
2018-10-05T22:52:56.496Z,11.11
2018-10-05T22:53:56.527Z,11.08
2018-10-05T22:54:56.490Z,11.07
2018-10-05T22:55:56.669Z,11.05
2018-10-05T22:56:56.454Z,10.92
2018-10-05T22:57:56.447Z,10.97
2018-10-05T22:58:56.462Z,10.94
2018-10-05T22:59:56.428Z,10.99
2018-10-05T23:00:56.414Z,10.97
2018-10-05T23:01:56.416Z,10.94
2018-10-05T23:02:56.521Z,10.86
2018-10-05T23:03:56.435Z,10.81
2018-10-05T23:04:56.376Z,10.79
2018-10-05T23:05:56.379Z,10.78
2018-10-05T23:06:56.370Z,10.87
2018-10-05T23:07:56.344Z,10.87
2018-10-05T23:08:56.357Z,10.82
2018-10-05T23:09:56.351Z,10.92
2018-10-05T23:10:56.310Z,10.96
2018-10-05T23:11:56.295Z,10.90
2018-10-05T23:12:56.286Z,10.89
2018-10-05T23:13:56.275Z,10.84
2018-10-05T23:14:56.333Z,10.87
2018-10-05T23:15:56.252Z,10.81
2018-10-05T23:16:56.251Z,10.81
2018-10-05T23:17:56.228Z,10.81
2018-10-05T23:18:56.219Z,10.84
2018-10-05T23:19:56.238Z,10.86
2018-10-05T23:20:56.215Z,10.86
2018-10-05T23:21:56.187Z,10.82
2018-10-05T23:22:56.177Z,10.82
2018-10-05T23:23:56.173Z,10.82
2018-10-05T23:24:56.192Z,10.79
2018-10-05T23:25:56.149Z,10.79
2018-10-05T23:26:56.192Z,10.75
2018-10-05T23:27:56.127Z,10.82
2018-10-05T23:28:56.113Z,10.82
2018-10-05T23:29:56.132Z,10.82
2018-10-05T23:30:56.092Z,10.87
2018-10-05T23:31:56.087Z,10.79
2018-10-05T23:32:56.085Z,10.82
2018-10-05T23:33:56.062Z,10.82
2018-10-05T23:34:56.090Z,10.82
2018-10-05T23:35:56.082Z,10.87
2018-10-05T23:36:56.029Z,10.87
2018-10-05T23:37:56.019Z,10.82
2018-10-05T23:38:56.036Z,10.89
2018-10-05T23:39:56.029Z,10.89
2018-10-05T23:40:55.997Z,10.92
2018-10-05T23:41:55.977Z,10.94
2018-10-05T23:42:55.966Z,10.92
2018-10-05T23:43:55.958Z,10.90
2018-10-05T23:44:55.992Z,10.89
2018-10-05T23:45:55.948Z,10.92
2018-10-05T23:46:55.944Z,10.89
2018-10-05T23:47:55.930Z,10.96
2018-10-05T23:48:55.929Z,10.84
2018-10-05T23:49:55.971Z,10.89
2018-10-05T23:50:55.893Z,10.96
2018-10-05T23:51:55.873Z,10.96
2018-10-05T23:52:55.861Z,10.94
2018-10-05T23:53:55.853Z,10.90
2018-10-05T23:54:55.928Z,10.97
2018-10-05T23:55:55.831Z,10.96
2018-10-05T23:56:55.818Z,10.93
2018-10-05T23:57:55.813Z,10.90
2018-10-05T23:58:55.796Z,10.96
2018-10-05T23:59:55.812Z,11.00
